sensor_id;sensor_type;location;lat;lon;timestamp;P1;durP1;ratioP1;P2;durP2;ratioP2
52668;SDS011;59898;52.786;6.892;2023-02-03T00:00:17;9.02;;;3.33;;
52668;SDS011;59898;52.786;6.892;2023-02-03T00:03:38;9.55;;;3.65;;
52668;SDS011;59898;52.786;6.892;2023-02-03T00:06:58;7.35;;;3.05;;
52668;SDS011;59898;52.786;6.892;2023-02-03T00:10:19;10.07;;;3.28;;
52668;SDS011;59898;52.786;6.892;2023-02-03T00:13:40;6.82;;;2.55;;
52668;SDS011;59898;52.786;6.892;2023-02-03T00:17:01;7.93;;;2.65;;
52668;SDS011;59898;52.786;6.892;2023-02-03T00:20:22;13.20;;;3.92;;
52668;SDS011;59898;52.786;6.892;2023-02-03T00:23:43;7.25;;;3.22;;
52668;SDS011;59898;52.786;6.892;2023-02-03T00:27:04;6.65;;;2.80;;
52668;SDS011;59898;52.786;6.892;2023-02-03T00:30:25;7.90;;;2.58;;
52668;SDS011;59898;52.786;6.892;2023-02-03T00:33:46;9.45;;;3.63;;
52668;SDS011;59898;52.786;6.892;2023-02-03T00:37:07;5.78;;;2.53;;
52668;SDS011;59898;52.786;6.892;2023-02-03T00:40:28;7.38;;;2.65;;
52668;SDS011;59898;52.786;6.892;2023-02-03T00:43:49;7.65;;;2.72;;
52668;SDS011;59898;52.786;6.892;2023-02-03T00:47:09;6.05;;;2.35;;
52668;SDS011;59898;52.786;6.892;2023-02-03T00:50:30;6.80;;;2.85;;
52668;SDS011;59898;52.786;6.892;2023-02-03T00:53:51;13.57;;;2.70;;
52668;SDS011;59898;52.786;6.892;2023-02-03T00:57:11;11.77;;;3.03;;
52668;SDS011;59898;52.786;6.892;2023-02-03T01:00:32;7.88;;;3.10;;
52668;SDS011;59898;52.786;6.892;2023-02-03T01:03:54;9.40;;;3.00;;
52668;SDS011;59898;52.786;6.892;2023-02-03T01:07:15;8.40;;;2.97;;
52668;SDS011;59898;52.786;6.892;2023-02-03T01:10:36;11.77;;;3.33;;
52668;SDS011;59898;52.786;6.892;2023-02-03T01:13:57;7.22;;;2.88;;
52668;SDS011;59898;52.786;6.892;2023-02-03T01:17:21;7.68;;;3.33;;
52668;SDS011;59898;52.786;6.892;2023-02-03T01:20:41;12.45;;;3.75;;
52668;SDS011;59898;52.786;6.892;2023-02-03T01:24:03;7.70;;;3.70;;
52668;SDS011;59898;52.786;6.892;2023-02-03T01:27:24;10.45;;;3.40;;
52668;SDS011;59898;52.786;6.892;2023-02-03T01:30:44;9.73;;;3.25;;
52668;SDS011;59898;52.786;6.892;2023-02-03T01:34:06;7.60;;;3.95;;
52668;SDS011;59898;52.786;6.892;2023-02-03T01:37:30;13.13;;;3.15;;
52668;SDS011;59898;52.786;6.892;2023-02-03T01:40:51;10.27;;;3.53;;
52668;SDS011;59898;52.786;6.892;2023-02-03T01:44:33;7.45;;;3.00;;
52668;SDS011;59898;52.786;6.892;2023-02-03T01:47:55;11.90;;;4.53;;
52668;SDS011;59898;52.786;6.892;2023-02-03T01:51:19;16.33;;;4.28;;
52668;SDS011;59898;52.786;6.892;2023-02-03T01:54:41;9.15;;;4.05;;
52668;SDS011;59898;52.786;6.892;2023-02-03T01:58:05;15.15;;;4.22;;
52668;SDS011;59898;52.786;6.892;2023-02-03T02:01:30;9.60;;;3.78;;
52668;SDS011;59898;52.786;6.892;2023-02-03T02:08:33;12.25;;;3.30;;
52668;SDS011;59898;52.786;6.892;2023-02-03T02:11:56;7.75;;;3.58;;
52668;SDS011;59898;52.786;6.892;2023-02-03T02:15:16;13.88;;;3.97;;
52668;SDS011;59898;52.786;6.892;2023-02-03T02:33:17;9.52;;;4.22;;
52668;SDS011;59898;52.786;6.892;2023-02-03T02:44:24;12.73;;;3.53;;
52668;SDS011;59898;52.786;6.892;2023-02-03T02:47:50;11.88;;;3.15;;
52668;SDS011;59898;52.786;6.892;2023-02-03T02:51:16;7.57;;;2.88;;
52668;SDS011;59898;52.786;6.892;2023-02-03T02:54:38;10.35;;;3.05;;
52668;SDS011;59898;52.786;6.892;2023-02-03T02:58:02;10.98;;;3.50;;
52668;SDS011;59898;52.786;6.892;2023-02-03T03:01:26;11.23;;;3.20;;
52668;SDS011;59898;52.786;6.892;2023-02-03T03:04:47;6.95;;;2.70;;
52668;SDS011;59898;52.786;6.892;2023-02-03T03:08:10;8.15;;;3.45;;
52668;SDS011;59898;52.786;6.892;2023-02-03T03:11:36;9.95;;;3.10;;
52668;SDS011;59898;52.786;6.892;2023-02-03T03:15:20;11.00;;;3.58;;
52668;SDS011;59898;52.786;6.892;2023-02-03T03:18:45;10.82;;;2.55;;
52668;SDS011;59898;52.786;6.892;2023-02-03T03:22:10;8.60;;;2.85;;
52668;SDS011;59898;52.786;6.892;2023-02-03T03:25:38;12.52;;;3.20;;
52668;SDS011;59898;52.786;6.892;2023-02-03T03:29:06;8.95;;;2.78;;
52668;SDS011;59898;52.786;6.892;2023-02-03T03:32:33;9.93;;;2.70;;
52668;SDS011;59898;52.786;6.892;2023-02-03T03:35:56;9.60;;;3.63;;
52668;SDS011;59898;52.786;6.892;2023-02-03T03:39:23;5.57;;;2.75;;
52668;SDS011;59898;52.786;6.892;2023-02-03T03:46:34;8.13;;;3.13;;
52668;SDS011;59898;52.786;6.892;2023-02-03T03:50:05;8.80;;;2.42;;
52668;SDS011;59898;52.786;6.892;2023-02-03T03:53:30;8.07;;;2.53;;
52668;SDS011;59898;52.786;6.892;2023-02-03T03:56:57;10.15;;;2.75;;
52668;SDS011;59898;52.786;6.892;2023-02-03T04:00:24;5.68;;;2.53;;
52668;SDS011;59898;52.786;6.892;2023-02-03T04:03:48;7.57;;;2.60;;
52668;SDS011;59898;52.786;6.892;2023-02-03T04:07:42;5.22;;;2.20;;
52668;SDS011;59898;52.786;6.892;2023-02-03T04:11:04;11.95;;;2.38;;
52668;SDS011;59898;52.786;6.892;2023-02-03T04:14:26;8.15;;;2.70;;
52668;SDS011;59898;52.786;6.892;2023-02-03T04:17:51;7.30;;;3.53;;
52668;SDS011;59898;52.786;6.892;2023-02-03T04:21:13;7.00;;;2.80;;
52668;SDS011;59898;52.786;6.892;2023-02-03T04:24:34;7.65;;;2.58;;
52668;SDS011;59898;52.786;6.892;2023-02-03T04:27:55;9.85;;;2.50;;
52668;SDS011;59898;52.786;6.892;2023-02-03T04:31:15;7.53;;;2.70;;
52668;SDS011;59898;52.786;6.892;2023-02-03T04:34:36;6.57;;;2.85;;
52668;SDS011;59898;52.786;6.892;2023-02-03T04:37:57;10.93;;;3.53;;
52668;SDS011;59898;52.786;6.892;2023-02-03T04:41:17;8.45;;;3.05;;
52668;SDS011;59898;52.786;6.892;2023-02-03T04:44:38;5.85;;;2.45;;
52668;SDS011;59898;52.786;6.892;2023-02-03T04:47:59;8.32;;;2.97;;
52668;SDS011;59898;52.786;6.892;2023-02-03T04:51:19;6.65;;;2.97;;
52668;SDS011;59898;52.786;6.892;2023-02-03T04:54:40;8.02;;;2.60;;
52668;SDS011;59898;52.786;6.892;2023-02-03T04:58:01;11.02;;;2.67;;
52668;SDS011;59898;52.786;6.892;2023-02-03T05:01:22;7.72;;;2.65;;
52668;SDS011;59898;52.786;6.892;2023-02-03T05:04:42;12.10;;;3.17;;
52668;SDS011;59898;52.786;6.892;2023-02-03T05:08:03;12.77;;;2.15;;
52668;SDS011;59898;52.786;6.892;2023-02-03T05:11:24;9.18;;;2.30;;
52668;SDS011;59898;52.786;6.892;2023-02-03T05:14:45;15.10;;;3.47;;
52668;SDS011;59898;52.786;6.892;2023-02-03T05:18:05;10.30;;;3.70;;
52668;SDS011;59898;52.786;6.892;2023-02-03T05:21:26;11.73;;;3.67;;
52668;SDS011;59898;52.786;6.892;2023-02-03T05:24:47;6.43;;;4.07;;
52668;SDS011;59898;52.786;6.892;2023-02-03T05:28:07;8.15;;;2.88;;
52668;SDS011;59898;52.786;6.892;2023-02-03T05:31:28;7.97;;;3.03;;
52668;SDS011;59898;52.786;6.892;2023-02-03T05:34:48;10.57;;;3.20;;
52668;SDS011;59898;52.786;6.892;2023-02-03T05:38:09;18.73;;;4.43;;
52668;SDS011;59898;52.786;6.892;2023-02-03T05:41:30;14.35;;;3.65;;
52668;SDS011;59898;52.786;6.892;2023-02-03T05:45:09;20.52;;;3.88;;
52668;SDS011;59898;52.786;6.892;2023-02-03T05:48:30;7.95;;;3.67;;
52668;SDS011;59898;52.786;6.892;2023-02-03T05:51:52;6.63;;;3.40;;
52668;SDS011;59898;52.786;6.892;2023-02-03T05:55:14;10.35;;;4.18;;
52668;SDS011;59898;52.786;6.892;2023-02-03T05:58:34;14.10;;;3.60;;
52668;SDS011;59898;52.786;6.892;2023-02-03T06:01:55;5.88;;;2.80;;
52668;SDS011;59898;52.786;6.892;2023-02-03T06:05:16;8.85;;;3.13;;
52668;SDS011;59898;52.786;6.892;2023-02-03T06:08:36;7.45;;;3.33;;
52668;SDS011;59898;52.786;6.892;2023-02-03T06:11:57;8.10;;;3.70;;
52668;SDS011;59898;52.786;6.892;2023-02-03T06:15:18;12.07;;;3.72;;
52668;SDS011;59898;52.786;6.892;2023-02-03T06:18:39;11.45;;;3.97;;
52668;SDS011;59898;52.786;6.892;2023-02-03T06:21:59;14.07;;;3.33;;
52668;SDS011;59898;52.786;6.892;2023-02-03T06:25:20;7.53;;;3.53;;
52668;SDS011;59898;52.786;6.892;2023-02-03T06:28:41;9.77;;;3.60;;
52668;SDS011;59898;52.786;6.892;2023-02-03T06:32:01;9.55;;;3.25;;
52668;SDS011;59898;52.786;6.892;2023-02-03T06:35:22;10.80;;;3.15;;
52668;SDS011;59898;52.786;6.892;2023-02-03T06:38:43;11.27;;;3.20;;
52668;SDS011;59898;52.786;6.892;2023-02-03T06:42:03;7.07;;;2.75;;
52668;SDS011;59898;52.786;6.892;2023-02-03T06:45:24;7.47;;;3.22;;
52668;SDS011;59898;52.786;6.892;2023-02-03T06:48:45;7.65;;;3.42;;
52668;SDS011;59898;52.786;6.892;2023-02-03T06:52:06;11.68;;;3.90;;
52668;SDS011;59898;52.786;6.892;2023-02-03T06:55:26;12.88;;;3.70;;
52668;SDS011;59898;52.786;6.892;2023-02-03T06:58:47;8.75;;;3.60;;
52668;SDS011;59898;52.786;6.892;2023-02-03T07:02:09;10.45;;;5.28;;
52668;SDS011;59898;52.786;6.892;2023-02-03T07:05:31;12.93;;;4.07;;
52668;SDS011;59898;52.786;6.892;2023-02-03T07:08:51;9.93;;;3.75;;
52668;SDS011;59898;52.786;6.892;2023-02-03T07:12:12;11.30;;;3.92;;
52668;SDS011;59898;52.786;6.892;2023-02-03T07:15:33;14.05;;;4.55;;
52668;SDS011;59898;52.786;6.892;2023-02-03T07:18:54;11.93;;;4.07;;
52668;SDS011;59898;52.786;6.892;2023-02-03T07:22:15;12.02;;;3.80;;
52668;SDS011;59898;52.786;6.892;2023-02-03T07:25:35;8.95;;;4.18;;
52668;SDS011;59898;52.786;6.892;2023-02-03T07:28:56;12.57;;;3.35;;
52668;SDS011;59898;52.786;6.892;2023-02-03T07:32:19;12.73;;;3.88;;
52668;SDS011;59898;52.786;6.892;2023-02-03T07:35:40;12.25;;;4.10;;
52668;SDS011;59898;52.786;6.892;2023-02-03T07:39:00;16.77;;;4.25;;
52668;SDS011;59898;52.786;6.892;2023-02-03T07:42:21;11.27;;;4.43;;
52668;SDS011;59898;52.786;6.892;2023-02-03T07:45:42;13.13;;;4.43;;
52668;SDS011;59898;52.786;6.892;2023-02-03T07:49:04;13.98;;;3.85;;
52668;SDS011;59898;52.786;6.892;2023-02-03T07:52:25;23.50;;;5.47;;
52668;SDS011;59898;52.786;6.892;2023-02-03T07:55:45;13.63;;;4.72;;
52668;SDS011;59898;52.786;6.892;2023-02-03T07:59:06;13.48;;;4.13;;
52668;SDS011;59898;52.786;6.892;2023-02-03T08:02:27;13.82;;;5.55;;
52668;SDS011;59898;52.786;6.892;2023-02-03T08:05:47;9.00;;;4.43;;
52668;SDS011;59898;52.786;6.892;2023-02-03T08:09:08;9.75;;;3.53;;
52668;SDS011;59898;52.786;6.892;2023-02-03T08:12:29;15.55;;;4.82;;
52668;SDS011;59898;52.786;6.892;2023-02-03T08:15:50;10.45;;;3.97;;
52668;SDS011;59898;52.786;6.892;2023-02-03T08:19:11;10.50;;;4.88;;
52668;SDS011;59898;52.786;6.892;2023-02-03T08:22:32;11.50;;;4.22;;
52668;SDS011;59898;52.786;6.892;2023-02-03T08:25:52;14.45;;;4.25;;
52668;SDS011;59898;52.786;6.892;2023-02-03T08:29:13;9.88;;;4.15;;
52668;SDS011;59898;52.786;6.892;2023-02-03T08:32:34;11.63;;;4.05;;
52668;SDS011;59898;52.786;6.892;2023-02-03T08:35:54;9.82;;;4.20;;
52668;SDS011;59898;52.786;6.892;2023-02-03T08:39:16;10.93;;;3.90;;
52668;SDS011;59898;52.786;6.892;2023-02-03T08:42:36;17.95;;;5.40;;
52668;SDS011;59898;52.786;6.892;2023-02-03T08:46:00;16.42;;;4.30;;
52668;SDS011;59898;52.786;6.892;2023-02-03T08:49:22;23.35;;;5.32;;
52668;SDS011;59898;52.786;6.892;2023-02-03T08:52:45;13.50;;;5.07;;
52668;SDS011;59898;52.786;6.892;2023-02-03T08:56:07;11.68;;;4.38;;
52668;SDS011;59898;52.786;6.892;2023-02-03T08:59:33;15.95;;;5.10;;
52668;SDS011;59898;52.786;6.892;2023-02-03T09:02:56;16.58;;;3.97;;
52668;SDS011;59898;52.786;6.892;2023-02-03T09:06:17;11.63;;;3.47;;
52668;SDS011;59898;52.786;6.892;2023-02-03T09:09:38;11.13;;;4.20;;
52668;SDS011;59898;52.786;6.892;2023-02-03T09:12:58;19.95;;;4.28;;
52668;SDS011;59898;52.786;6.892;2023-02-03T09:16:19;16.17;;;4.55;;
52668;SDS011;59898;52.786;6.892;2023-02-03T09:19:43;13.95;;;4.60;;
52668;SDS011;59898;52.786;6.892;2023-02-03T09:23:03;15.35;;;6.32;;
52668;SDS011;59898;52.786;6.892;2023-02-03T09:26:24;12.45;;;4.55;;
52668;SDS011;59898;52.786;6.892;2023-02-03T09:29:45;16.50;;;5.78;;
52668;SDS011;59898;52.786;6.892;2023-02-03T09:33:05;11.48;;;4.20;;
52668;SDS011;59898;52.786;6.892;2023-02-03T09:36:26;14.75;;;4.55;;
52668;SDS011;59898;52.786;6.892;2023-02-03T09:39:47;13.48;;;4.43;;
52668;SDS011;59898;52.786;6.892;2023-02-03T09:46:55;22.15;;;5.25;;
52668;SDS011;59898;52.786;6.892;2023-02-03T09:50:23;17.20;;;4.40;;
52668;SDS011;59898;52.786;6.892;2023-02-03T09:53:47;16.85;;;5.38;;
52668;SDS011;59898;52.786;6.892;2023-02-03T10:00:51;21.45;;;6.75;;
52668;SDS011;59898;52.786;6.892;2023-02-03T10:04:31;18.33;;;4.75;;
52668;SDS011;59898;52.786;6.892;2023-02-03T10:18:43;17.45;;;5.10;;
52668;SDS011;59898;52.786;6.892;2023-02-03T10:22:07;20.42;;;7.28;;
52668;SDS011;59898;52.786;6.892;2023-02-03T10:25:39;22.02;;;5.70;;
52668;SDS011;59898;52.786;6.892;2023-02-03T10:32:55;16.80;;;5.72;;
52668;SDS011;59898;52.786;6.892;2023-02-03T10:36:21;24.20;;;5.78;;
52668;SDS011;59898;52.786;6.892;2023-02-03T10:39:47;21.63;;;5.65;;
52668;SDS011;59898;52.786;6.892;2023-02-03T10:43:09;26.80;;;7.93;;
52668;SDS011;59898;52.786;6.892;2023-02-03T10:46:49;20.45;;;5.55;;
52668;SDS011;59898;52.786;6.892;2023-02-03T10:50:14;23.63;;;6.28;;
52668;SDS011;59898;52.786;6.892;2023-02-03T10:53:38;25.63;;;6.85;;
52668;SDS011;59898;52.786;6.892;2023-02-03T10:57:02;22.73;;;6.50;;
52668;SDS011;59898;52.786;6.892;2023-02-03T11:00:29;16.05;;;6.15;;
52668;SDS011;59898;52.786;6.892;2023-02-03T11:04:01;22.85;;;6.32;;
52668;SDS011;59898;52.786;6.892;2023-02-03T11:07:24;20.55;;;6.93;;
52668;SDS011;59898;52.786;6.892;2023-02-03T11:10:46;23.27;;;6.22;;
52668;SDS011;59898;52.786;6.892;2023-02-03T11:17:27;18.73;;;5.90;;
52668;SDS011;59898;52.786;6.892;2023-02-03T11:20:49;18.67;;;5.50;;
52668;SDS011;59898;52.786;6.892;2023-02-03T11:24:20;39.50;;;6.88;;
52668;SDS011;59898;52.786;6.892;2023-02-03T11:27:43;23.15;;;6.30;;
52668;SDS011;59898;52.786;6.892;2023-02-03T11:31:04;25.75;;;6.88;;
52668;SDS011;59898;52.786;6.892;2023-02-03T11:34:32;28.80;;;6.35;;
52668;SDS011;59898;52.786;6.892;2023-02-03T11:37:57;31.05;;;9.32;;
52668;SDS011;59898;52.786;6.892;2023-02-03T11:41:19;26.60;;;6.70;;
52668;SDS011;59898;52.786;6.892;2023-02-03T11:44:41;33.38;;;7.05;;
52668;SDS011;59898;52.786;6.892;2023-02-03T11:51:43;20.85;;;6.43;;
52668;SDS011;59898;52.786;6.892;2023-02-03T11:55:24;25.95;;;6.57;;
52668;SDS011;59898;52.786;6.892;2023-02-03T12:17:29;25.02;;;6.95;;
52668;SDS011;59898;52.786;6.892;2023-02-03T12:25:25;21.70;;;6.68;;
52668;SDS011;59898;52.786;6.892;2023-02-03T12:43:03;24.15;;;6.55;;
52668;SDS011;59898;52.786;6.892;2023-02-03T12:46:45;25.85;;;6.88;;
52668;SDS011;59898;52.786;6.892;2023-02-03T12:50:16;24.27;;;6.22;;
52668;SDS011;59898;52.786;6.892;2023-02-03T12:53:41;28.88;;;8.20;;
52668;SDS011;59898;52.786;6.892;2023-02-03T13:01:05;25.35;;;6.40;;
52668;SDS011;59898;52.786;6.892;2023-02-03T13:04:51;25.95;;;6.68;;
52668;SDS011;59898;52.786;6.892;2023-02-03T13:11:59;26.15;;;7.65;;
52668;SDS011;59898;52.786;6.892;2023-02-03T13:15:41;26.40;;;7.47;;
52668;SDS011;59898;52.786;6.892;2023-02-03T13:19:05;27.70;;;6.70;;
52668;SDS011;59898;52.786;6.892;2023-02-03T13:22:33;23.75;;;6.72;;
52668;SDS011;59898;52.786;6.892;2023-02-03T13:44:27;26.88;;;6.70;;
52668;SDS011;59898;52.786;6.892;2023-02-03T13:47:49;34.85;;;7.15;;
52668;SDS011;59898;52.786;6.892;2023-02-03T13:54:37;28.65;;;7.38;;
52668;SDS011;59898;52.786;6.892;2023-02-03T13:58:03;20.73;;;6.05;;
52668;SDS011;59898;52.786;6.892;2023-02-03T14:11:49;25.65;;;6.95;;
52668;SDS011;59898;52.786;6.892;2023-02-03T14:18:50;17.83;;;5.70;;
52668;SDS011;59898;52.786;6.892;2023-02-03T14:22:16;27.20;;;7.18;;
52668;SDS011;59898;52.786;6.892;2023-02-03T14:25:39;24.27;;;6.10;;
52668;SDS011;59898;52.786;6.892;2023-02-03T14:29:25;29.80;;;6.15;;
52668;SDS011;59898;52.786;6.892;2023-02-03T14:32:53;24.48;;;6.88;;
52668;SDS011;59898;52.786;6.892;2023-02-03T14:43:40;27.90;;;7.00;;
52668;SDS011;59898;52.786;6.892;2023-02-03T14:54:25;16.60;;;5.15;;
52668;SDS011;59898;52.786;6.892;2023-02-03T14:58:05;18.77;;;6.47;;
52668;SDS011;59898;52.786;6.892;2023-02-03T15:08:39;17.88;;;4.88;;
52668;SDS011;59898;52.786;6.892;2023-02-03T15:12:42;24.75;;;5.47;;
52668;SDS011;59898;52.786;6.892;2023-02-03T15:16:00;21.40;;;4.88;;
52668;SDS011;59898;52.786;6.892;2023-02-03T15:19:25;25.40;;;6.88;;
52668;SDS011;59898;52.786;6.892;2023-02-03T15:22:58;17.73;;;4.63;;
52668;SDS011;59898;52.786;6.892;2023-02-03T15:29:41;17.30;;;5.25;;
52668;SDS011;59898;52.786;6.892;2023-02-03T15:33:06;27.90;;;5.85;;
52668;SDS011;59898;52.786;6.892;2023-02-03T15:36:42;26.23;;;4.65;;
52668;SDS011;59898;52.786;6.892;2023-02-03T15:40:12;16.92;;;4.90;;
52668;SDS011;59898;52.786;6.892;2023-02-03T15:43:38;23.35;;;5.55;;
52668;SDS011;59898;52.786;6.892;2023-02-03T15:47:03;21.88;;;4.93;;
52668;SDS011;59898;52.786;6.892;2023-02-03T15:50:30;22.73;;;4.72;;
52668;SDS011;59898;52.786;6.892;2023-02-03T15:53:56;26.38;;;5.00;;
52668;SDS011;59898;52.786;6.892;2023-02-03T15:57:27;14.35;;;4.68;;
52668;SDS011;59898;52.786;6.892;2023-02-03T16:00:53;15.95;;;6.88;;
52668;SDS011;59898;52.786;6.892;2023-02-03T16:04:20;25.52;;;5.32;;
52668;SDS011;59898;52.786;6.892;2023-02-03T16:07:44;15.40;;;4.22;;
52668;SDS011;59898;52.786;6.892;2023-02-03T16:14:54;17.27;;;5.43;;
52668;SDS011;59898;52.786;6.892;2023-02-03T16:18:16;15.02;;;5.10;;
52668;SDS011;59898;52.786;6.892;2023-02-03T16:21:54;15.43;;;4.88;;
52668;SDS011;59898;52.786;6.892;2023-02-03T16:25:26;12.88;;;4.28;;
52668;SDS011;59898;52.786;6.892;2023-02-03T16:28:56;23.75;;;5.70;;
52668;SDS011;59898;52.786;6.892;2023-02-03T16:32:41;19.65;;;4.95;;
52668;SDS011;59898;52.786;6.892;2023-02-03T16:36:20;19.15;;;4.55;;
52668;SDS011;59898;52.786;6.892;2023-02-03T16:40:00;14.48;;;4.32;;
52668;SDS011;59898;52.786;6.892;2023-02-03T16:43:39;19.95;;;5.45;;
52668;SDS011;59898;52.786;6.892;2023-02-03T16:51:03;17.25;;;4.25;;
52668;SDS011;59898;52.786;6.892;2023-02-03T16:54:29;10.95;;;5.13;;
52668;SDS011;59898;52.786;6.892;2023-02-03T16:57:50;19.13;;;6.20;;
52668;SDS011;59898;52.786;6.892;2023-02-03T17:01:11;25.23;;;5.32;;
52668;SDS011;59898;52.786;6.892;2023-02-03T17:04:32;21.50;;;5.88;;
52668;SDS011;59898;52.786;6.892;2023-02-03T17:07:52;20.40;;;5.70;;
52668;SDS011;59898;52.786;6.892;2023-02-03T17:11:14;23.23;;;5.88;;
52668;SDS011;59898;52.786;6.892;2023-02-03T17:14:37;20.55;;;6.00;;
52668;SDS011;59898;52.786;6.892;2023-02-03T17:17:58;18.02;;;5.63;;
52668;SDS011;59898;52.786;6.892;2023-02-03T17:21:26;28.52;;;6.85;;
52668;SDS011;59898;52.786;6.892;2023-02-03T17:24:48;23.15;;;7.22;;
52668;SDS011;59898;52.786;6.892;2023-02-03T17:28:09;22.20;;;5.88;;
52668;SDS011;59898;52.786;6.892;2023-02-03T17:31:32;25.27;;;6.78;;
52668;SDS011;59898;52.786;6.892;2023-02-03T17:34:53;19.52;;;7.05;;
52668;SDS011;59898;52.786;6.892;2023-02-03T17:38:13;21.27;;;5.88;;
52668;SDS011;59898;52.786;6.892;2023-02-03T17:41:34;31.00;;;7.25;;
52668;SDS011;59898;52.786;6.892;2023-02-03T17:44:55;15.77;;;5.55;;
52668;SDS011;59898;52.786;6.892;2023-02-03T17:48:15;30.70;;;7.38;;
52668;SDS011;59898;52.786;6.892;2023-02-03T17:51:36;31.10;;;6.28;;
52668;SDS011;59898;52.786;6.892;2023-02-03T17:54:57;20.67;;;5.60;;
52668;SDS011;59898;52.786;6.892;2023-02-03T17:58:18;29.27;;;8.60;;
52668;SDS011;59898;52.786;6.892;2023-02-03T18:01:39;20.95;;;6.32;;
52668;SDS011;59898;52.786;6.892;2023-02-03T18:05:00;27.33;;;7.25;;
52668;SDS011;59898;52.786;6.892;2023-02-03T18:08:22;18.67;;;5.18;;
52668;SDS011;59898;52.786;6.892;2023-02-03T18:11:42;28.23;;;6.45;;
52668;SDS011;59898;52.786;6.892;2023-02-03T18:15:04;27.92;;;6.20;;
52668;SDS011;59898;52.786;6.892;2023-02-03T18:18:25;21.50;;;7.53;;
52668;SDS011;59898;52.786;6.892;2023-02-03T18:21:47;17.45;;;4.75;;
52668;SDS011;59898;52.786;6.892;2023-02-03T18:25:08;20.20;;;5.50;;
52668;SDS011;59898;52.786;6.892;2023-02-03T18:28:29;24.17;;;5.57;;
52668;SDS011;59898;52.786;6.892;2023-02-03T18:31:50;16.60;;;5.72;;
52668;SDS011;59898;52.786;6.892;2023-02-03T18:35:10;24.98;;;7.15;;
52668;SDS011;59898;52.786;6.892;2023-02-03T18:38:36;29.80;;;6.53;;
52668;SDS011;59898;52.786;6.892;2023-02-03T18:41:56;23.67;;;5.82;;
52668;SDS011;59898;52.786;6.892;2023-02-03T18:45:17;35.50;;;7.55;;
52668;SDS011;59898;52.786;6.892;2023-02-03T18:48:38;19.92;;;7.60;;
52668;SDS011;59898;52.786;6.892;2023-02-03T18:51:59;23.67;;;6.55;;
52668;SDS011;59898;52.786;6.892;2023-02-03T18:55:19;20.00;;;5.72;;
52668;SDS011;59898;52.786;6.892;2023-02-03T18:58:40;30.38;;;7.10;;
52668;SDS011;59898;52.786;6.892;2023-02-03T19:02:01;19.02;;;6.70;;
52668;SDS011;59898;52.786;6.892;2023-02-03T19:05:22;21.55;;;6.57;;
52668;SDS011;59898;52.786;6.892;2023-02-03T19:08:42;27.98;;;6.70;;
52668;SDS011;59898;52.786;6.892;2023-02-03T19:12:04;32.28;;;6.00;;
52668;SDS011;59898;52.786;6.892;2023-02-03T19:15:24;20.73;;;6.55;;
52668;SDS011;59898;52.786;6.892;2023-02-03T19:18:45;32.60;;;8.13;;
52668;SDS011;59898;52.786;6.892;2023-02-03T19:22:07;31.65;;;7.78;;
52668;SDS011;59898;52.786;6.892;2023-02-03T19:25:27;28.17;;;6.05;;
52668;SDS011;59898;52.786;6.892;2023-02-03T19:28:48;30.83;;;6.68;;
52668;SDS011;59898;52.786;6.892;2023-02-03T19:32:09;19.90;;;6.40;;
52668;SDS011;59898;52.786;6.892;2023-02-03T19:35:31;25.75;;;7.28;;
52668;SDS011;59898;52.786;6.892;2023-02-03T19:38:52;21.40;;;6.28;;
52668;SDS011;59898;52.786;6.892;2023-02-03T19:42:14;32.17;;;7.32;;
52668;SDS011;59898;52.786;6.892;2023-02-03T19:45:35;25.42;;;6.60;;
52668;SDS011;59898;52.786;6.892;2023-02-03T19:48:56;34.05;;;7.93;;
52668;SDS011;59898;52.786;6.892;2023-02-03T19:52:16;23.27;;;6.00;;
52668;SDS011;59898;52.786;6.892;2023-02-03T19:55:37;23.17;;;5.07;;
52668;SDS011;59898;52.786;6.892;2023-02-03T19:58:58;24.92;;;6.93;;
52668;SDS011;59898;52.786;6.892;2023-02-03T20:02:18;15.00;;;5.32;;
52668;SDS011;59898;52.786;6.892;2023-02-03T20:05:39;26.98;;;6.57;;
52668;SDS011;59898;52.786;6.892;2023-02-03T20:09:00;27.50;;;7.68;;
52668;SDS011;59898;52.786;6.892;2023-02-03T20:12:23;31.63;;;11.02;;
52668;SDS011;59898;52.786;6.892;2023-02-03T20:15:43;25.85;;;7.05;;
52668;SDS011;59898;52.786;6.892;2023-02-03T20:19:06;25.63;;;8.70;;
52668;SDS011;59898;52.786;6.892;2023-02-03T20:22:27;30.08;;;7.60;;
52668;SDS011;59898;52.786;6.892;2023-02-03T20:25:48;28.60;;;7.55;;
52668;SDS011;59898;52.786;6.892;2023-02-03T20:29:11;20.65;;;8.05;;
52668;SDS011;59898;52.786;6.892;2023-02-03T20:32:32;31.73;;;6.95;;
52668;SDS011;59898;52.786;6.892;2023-02-03T20:35:53;28.70;;;7.05;;
52668;SDS011;59898;52.786;6.892;2023-02-03T20:39:15;27.30;;;6.72;;
52668;SDS011;59898;52.786;6.892;2023-02-03T20:42:38;34.15;;;7.50;;
52668;SDS011;59898;52.786;6.892;2023-02-03T20:45:59;29.65;;;8.38;;
52668;SDS011;59898;52.786;6.892;2023-02-03T20:49:20;22.67;;;6.00;;
52668;SDS011;59898;52.786;6.892;2023-02-03T20:52:40;28.73;;;6.45;;
52668;SDS011;59898;52.786;6.892;2023-02-03T20:56:01;28.08;;;6.63;;
52668;SDS011;59898;52.786;6.892;2023-02-03T20:59:26;19.50;;;6.35;;
52668;SDS011;59898;52.786;6.892;2023-02-03T21:02:46;26.98;;;7.22;;
52668;SDS011;59898;52.786;6.892;2023-02-03T21:06:26;31.75;;;6.15;;
52668;SDS011;59898;52.786;6.892;2023-02-03T21:13:20;29.38;;;7.88;;
52668;SDS011;59898;52.786;6.892;2023-02-03T21:16:42;25.67;;;5.75;;
52668;SDS011;59898;52.786;6.892;2023-02-03T21:20:05;26.58;;;8.30;;
52668;SDS011;59898;52.786;6.892;2023-02-03T21:23:53;34.03;;;7.60;;
52668;SDS011;59898;52.786;6.892;2023-02-03T21:27:33;25.88;;;6.47;;
52668;SDS011;59898;52.786;6.892;2023-02-03T21:30:53;33.60;;;5.60;;
52668;SDS011;59898;52.786;6.892;2023-02-03T21:34:33;27.95;;;7.00;;
52668;SDS011;59898;52.786;6.892;2023-02-03T21:37:58;29.45;;;7.20;;
52668;SDS011;59898;52.786;6.892;2023-02-03T21:41:23;27.35;;;6.20;;
52668;SDS011;59898;52.786;6.892;2023-02-03T21:44:44;27.75;;;7.80;;
52668;SDS011;59898;52.786;6.892;2023-02-03T21:51:49;30.13;;;8.18;;
52668;SDS011;59898;52.786;6.892;2023-02-03T21:55:11;28.80;;;7.70;;
52668;SDS011;59898;52.786;6.892;2023-02-03T21:58:34;23.95;;;6.50;;
52668;SDS011;59898;52.786;6.892;2023-02-03T22:01:56;32.53;;;7.57;;
52668;SDS011;59898;52.786;6.892;2023-02-03T22:05:17;30.30;;;8.50;;
52668;SDS011;59898;52.786;6.892;2023-02-03T22:08:39;25.75;;;7.90;;
52668;SDS011;59898;52.786;6.892;2023-02-03T22:12:01;24.73;;;7.70;;
52668;SDS011;59898;52.786;6.892;2023-02-03T22:15:22;31.27;;;6.50;;
52668;SDS011;59898;52.786;6.892;2023-02-03T22:18:45;30.85;;;6.72;;
52668;SDS011;59898;52.786;6.892;2023-02-03T22:22:07;24.75;;;7.10;;
52668;SDS011;59898;52.786;6.892;2023-02-03T22:25:28;34.65;;;7.00;;
52668;SDS011;59898;52.786;6.892;2023-02-03T22:28:50;22.83;;;7.20;;
52668;SDS011;59898;52.786;6.892;2023-02-03T22:32:10;27.65;;;6.53;;
52668;SDS011;59898;52.786;6.892;2023-02-03T22:35:31;31.83;;;5.90;;
52668;SDS011;59898;52.786;6.892;2023-02-03T22:38:52;20.73;;;5.75;;
52668;SDS011;59898;52.786;6.892;2023-02-03T22:42:12;32.38;;;6.78;;
52668;SDS011;59898;52.786;6.892;2023-02-03T22:45:35;27.75;;;6.75;;
52668;SDS011;59898;52.786;6.892;2023-02-03T22:48:55;21.63;;;6.05;;
52668;SDS011;59898;52.786;6.892;2023-02-03T22:52:16;22.45;;;6.30;;
52668;SDS011;59898;52.786;6.892;2023-02-03T22:55:37;29.20;;;8.02;;
52668;SDS011;59898;52.786;6.892;2023-02-03T22:58:58;31.95;;;7.30;;
52668;SDS011;59898;52.786;6.892;2023-02-03T23:02:19;27.15;;;6.80;;
52668;SDS011;59898;52.786;6.892;2023-02-03T23:05:39;25.95;;;6.60;;
52668;SDS011;59898;52.786;6.892;2023-02-03T23:09:00;35.90;;;6.80;;
52668;SDS011;59898;52.786;6.892;2023-02-03T23:12:21;26.30;;;6.18;;